sensor_id;sensor_type;location;lat;lon;timestamp;P1;durP1;ratioP1;P2;durP2;ratioP2
8982;SDS011;20979;59.850;10.660;2023-04-15T00:02:18;0.47;;;0.47;;
8982;SDS011;20979;59.850;10.660;2023-04-15T00:04:46;0.40;;;0.40;;
8982;SDS011;20979;59.850;10.660;2023-04-15T00:07:13;0.40;;;0.40;;
8982;SDS011;20979;59.850;10.660;2023-04-15T00:09:42;0.40;;;0.40;;
8982;SDS011;20979;59.850;10.660;2023-04-15T00:12:11;0.50;;;0.50;;
8982;SDS011;20979;59.850;10.660;2023-04-15T00:14:39;0.30;;;0.30;;
8982;SDS011;20979;59.850;10.660;2023-04-15T00:17:06;0.87;;;0.40;;
8982;SDS011;20979;59.850;10.660;2023-04-15T00:19:34;0.50;;;0.50;;
8982;SDS011;20979;59.850;10.660;2023-04-15T00:22:02;0.30;;;0.30;;
8982;SDS011;20979;59.850;10.660;2023-04-15T00:24:30;0.53;;;0.53;;
8982;SDS011;20979;59.850;10.660;2023-04-15T00:26:58;0.93;;;0.50;;
8982;SDS011;20979;59.850;10.660;2023-04-15T00:29:27;0.70;;;0.40;;
8982;SDS011;20979;59.850;10.660;2023-04-15T00:31:54;0.37;;;0.37;;
8982;SDS011;20979;59.850;10.660;2023-04-15T00:34:22;0.40;;;0.40;;
8982;SDS011;20979;59.850;10.660;2023-04-15T00:36:49;0.50;;;0.50;;
8982;SDS011;20979;59.850;10.660;2023-04-15T00:39:17;0.97;;;0.70;;
8982;SDS011;20979;59.850;10.660;2023-04-15T00:41:45;0.50;;;0.50;;
8982;SDS011;20979;59.850;10.660;2023-04-15T00:44:12;0.37;;;0.37;;
8982;SDS011;20979;59.850;10.660;2023-04-15T00:46:41;0.50;;;0.50;;
8982;SDS011;20979;59.850;10.660;2023-04-15T00:49:09;0.60;;;0.50;;
8982;SDS011;20979;59.850;10.660;2023-04-15T00:51:37;0.67;;;0.50;;
8982;SDS011;20979;59.850;10.660;2023-04-15T00:54:04;0.40;;;0.40;;
8982;SDS011;20979;59.850;10.660;2023-04-15T00:56:33;1.00;;;0.40;;
8982;SDS011;20979;59.850;10.660;2023-04-15T00:59:02;0.50;;;0.50;;
8982;SDS011;20979;59.850;10.660;2023-04-15T01:01:30;0.40;;;0.40;;
8982;SDS011;20979;59.850;10.660;2023-04-15T01:03:59;0.30;;;0.30;;
8982;SDS011;20979;59.850;10.660;2023-04-15T01:06:27;0.30;;;0.30;;
8982;SDS011;20979;59.850;10.660;2023-04-15T01:08:55;0.40;;;0.40;;
8982;SDS011;20979;59.850;10.660;2023-04-15T01:11:23;1.20;;;0.50;;
8982;SDS011;20979;59.850;10.660;2023-04-15T01:13:51;0.50;;;0.50;;
8982;SDS011;20979;59.850;10.660;2023-04-15T01:16:18;0.30;;;0.30;;
8982;SDS011;20979;59.850;10.660;2023-04-15T01:18:46;0.30;;;0.30;;
8982;SDS011;20979;59.850;10.660;2023-04-15T01:21:14;0.40;;;0.40;;
8982;SDS011;20979;59.850;10.660;2023-04-15T01:23:42;0.50;;;0.50;;
8982;SDS011;20979;59.850;10.660;2023-04-15T01:26:12;0.40;;;0.40;;
8982;SDS011;20979;59.850;10.660;2023-04-15T01:28:39;0.40;;;0.40;;
8982;SDS011;20979;59.850;10.660;2023-04-15T01:31:07;0.87;;;0.40;;
8982;SDS011;20979;59.850;10.660;2023-04-15T01:33:35;0.50;;;0.50;;
8982;SDS011;20979;59.850;10.660;2023-04-15T01:36:03;0.40;;;0.40;;
8982;SDS011;20979;59.850;10.660;2023-04-15T01:38:32;0.50;;;0.50;;
8982;SDS011;20979;59.850;10.660;2023-04-15T01:41:00;0.50;;;0.50;;
8982;SDS011;20979;59.850;10.660;2023-04-15T01:43:29;0.50;;;0.50;;
8982;SDS011;20979;59.850;10.660;2023-04-15T01:45:57;0.60;;;0.60;;
8982;SDS011;20979;59.850;10.660;2023-04-15T01:48:24;0.40;;;0.40;;
8982;SDS011;20979;59.850;10.660;2023-04-15T01:50:53;0.40;;;0.40;;
8982;SDS011;20979;59.850;10.660;2023-04-15T01:53:22;0.33;;;0.33;;
8982;SDS011;20979;59.850;10.660;2023-04-15T01:55:49;0.40;;;0.40;;
8982;SDS011;20979;59.850;10.660;2023-04-15T01:58:17;0.50;;;0.50;;
8982;SDS011;20979;59.850;10.660;2023-04-15T02:00:46;0.50;;;0.50;;
8982;SDS011;20979;59.850;10.660;2023-04-15T02:03:15;0.50;;;0.50;;
8982;SDS011;20979;59.850;10.660;2023-04-15T02:05:43;0.67;;;0.67;;
8982;SDS011;20979;59.850;10.660;2023-04-15T02:08:10;0.40;;;0.40;;
8982;SDS011;20979;59.850;10.660;2023-04-15T02:10:37;0.40;;;0.40;;
8982;SDS011;20979;59.850;10.660;2023-04-15T02:13:05;0.47;;;0.47;;
8982;SDS011;20979;59.850;10.660;2023-04-15T02:15:32;0.50;;;0.50;;
8982;SDS011;20979;59.850;10.660;2023-04-15T02:18:01;0.50;;;0.43;;
8982;SDS011;20979;59.850;10.660;2023-04-15T02:20:28;0.67;;;0.67;;
8982;SDS011;20979;59.850;10.660;2023-04-15T02:22:56;0.50;;;0.50;;
8982;SDS011;20979;59.850;10.660;2023-04-15T02:25:23;0.50;;;0.50;;
8982;SDS011;20979;59.850;10.660;2023-04-15T02:27:51;0.60;;;0.60;;
8982;SDS011;20979;59.850;10.660;2023-04-15T02:30:19;0.60;;;0.60;;
8982;SDS011;20979;59.850;10.660;2023-04-15T02:32:48;0.70;;;0.70;;
8982;SDS011;20979;59.850;10.660;2023-04-15T02:35:16;0.60;;;0.60;;
8982;SDS011;20979;59.850;10.660;2023-04-15T02:37:44;0.70;;;0.70;;
8982;SDS011;20979;59.850;10.660;2023-04-15T02:40:11;0.90;;;0.90;;
8982;SDS011;20979;59.850;10.660;2023-04-15T02:42:39;0.87;;;0.87;;
8982;SDS011;20979;59.850;10.660;2023-04-15T02:45:07;0.87;;;0.87;;
8982;SDS011;20979;59.850;10.660;2023-04-15T02:47:34;0.93;;;0.93;;
8982;SDS011;20979;59.850;10.660;2023-04-15T02:50:05;0.90;;;0.90;;
8982;SDS011;20979;59.850;10.660;2023-04-15T02:52:34;0.90;;;0.90;;
8982;SDS011;20979;59.850;10.660;2023-04-15T02:55:02;1.00;;;1.00;;
8982;SDS011;20979;59.850;10.660;2023-04-15T02:57:29;0.83;;;0.83;;
8982;SDS011;20979;59.850;10.660;2023-04-15T02:59:56;0.90;;;0.90;;
8982;SDS011;20979;59.850;10.660;2023-04-15T03:02:24;1.07;;;1.07;;
8982;SDS011;20979;59.850;10.660;2023-04-15T03:04:51;1.00;;;1.00;;
8982;SDS011;20979;59.850;10.660;2023-04-15T03:07:19;1.40;;;1.30;;
8982;SDS011;20979;59.850;10.660;2023-04-15T03:09:48;1.10;;;1.00;;
8982;SDS011;20979;59.850;10.660;2023-04-15T03:12:15;1.00;;;1.00;;
8982;SDS011;20979;59.850;10.660;2023-04-15T03:14:43;1.10;;;1.10;;
8982;SDS011;20979;59.850;10.660;2023-04-15T03:17:10;1.30;;;1.30;;
8982;SDS011;20979;59.850;10.660;2023-04-15T03:19:38;1.93;;;1.30;;
8982;SDS011;20979;59.850;10.660;2023-04-15T03:22:05;1.20;;;1.20;;
8982;SDS011;20979;59.850;10.660;2023-04-15T03:24:32;1.10;;;1.10;;
8982;SDS011;20979;59.850;10.660;2023-04-15T03:27:01;1.40;;;1.30;;
8982;SDS011;20979;59.850;10.660;2023-04-15T03:29:30;1.60;;;1.50;;
8982;SDS011;20979;59.850;10.660;2023-04-15T03:31:57;1.30;;;1.30;;
8982;SDS011;20979;59.850;10.660;2023-04-15T03:34:25;1.60;;;1.50;;
8982;SDS011;20979;59.850;10.660;2023-04-15T03:36:52;1.40;;;1.30;;
8982;SDS011;20979;59.850;10.660;2023-04-15T03:39:20;1.60;;;1.53;;
8982;SDS011;20979;59.850;10.660;2023-04-15T03:41:47;1.47;;;1.47;;
8982;SDS011;20979;59.850;10.660;2023-04-15T03:44:16;1.90;;;1.70;;
8982;SDS011;20979;59.850;10.660;2023-04-15T03:46:43;1.67;;;1.57;;
8982;SDS011;20979;59.850;10.660;2023-04-15T03:49:12;1.70;;;1.60;;
8982;SDS011;20979;59.850;10.660;2023-04-15T03:51:40;2.03;;;1.83;;
8982;SDS011;20979;59.850;10.660;2023-04-15T03:54:07;1.83;;;1.73;;
8982;SDS011;20979;59.850;10.660;2023-04-15T03:56:35;1.80;;;1.70;;
8982;SDS011;20979;59.850;10.660;2023-04-15T03:59:02;1.70;;;1.60;;
8982;SDS011;20979;59.850;10.660;2023-04-15T04:01:31;1.80;;;1.70;;
8982;SDS011;20979;59.850;10.660;2023-04-15T04:03:59;1.77;;;1.67;;
8982;SDS011;20979;59.850;10.660;2023-04-15T04:06:26;2.40;;;1.87;;
8982;SDS011;20979;59.850;10.660;2023-04-15T04:08:53;1.57;;;1.47;;
8982;SDS011;20979;59.850;10.660;2023-04-15T04:11:21;2.10;;;1.80;;
8982;SDS011;20979;59.850;10.660;2023-04-15T04:13:49;1.87;;;1.77;;
8982;SDS011;20979;59.850;10.660;2023-04-15T04:16:16;2.20;;;1.70;;
8982;SDS011;20979;59.850;10.660;2023-04-15T04:18:45;1.90;;;1.80;;
8982;SDS011;20979;59.850;10.660;2023-04-15T04:21:12;1.80;;;1.70;;
8982;SDS011;20979;59.850;10.660;2023-04-15T04:23:39;1.97;;;1.87;;
8982;SDS011;20979;59.850;10.660;2023-04-15T04:26:07;2.10;;;1.90;;
8982;SDS011;20979;59.850;10.660;2023-04-15T04:28:34;2.00;;;1.90;;
8982;SDS011;20979;59.850;10.660;2023-04-15T04:31:03;1.93;;;1.83;;
8982;SDS011;20979;59.850;10.660;2023-04-15T04:33:31;2.03;;;1.93;;
8982;SDS011;20979;59.850;10.660;2023-04-15T04:36:00;2.30;;;2.10;;
8982;SDS011;20979;59.850;10.660;2023-04-15T04:38:27;2.50;;;2.30;;
8982;SDS011;20979;59.850;10.660;2023-04-15T04:40:54;2.17;;;2.03;;
8982;SDS011;20979;59.850;10.660;2023-04-15T04:43:22;2.13;;;2.00;;
8982;SDS011;20979;59.850;10.660;2023-04-15T04:45:49;2.47;;;2.27;;
8982;SDS011;20979;59.850;10.660;2023-04-15T04:48:16;1.83;;;1.73;;
8982;SDS011;20979;59.850;10.660;2023-04-15T04:50:44;3.77;;;2.10;;
8982;SDS011;20979;59.850;10.660;2023-04-15T04:53:13;2.33;;;2.03;;
8982;SDS011;20979;59.850;10.660;2023-04-15T04:55:42;2.43;;;2.23;;
8982;SDS011;20979;59.850;10.660;2023-04-15T04:58:09;2.50;;;2.30;;
8982;SDS011;20979;59.850;10.660;2023-04-15T05:00:37;2.40;;;2.10;;
8982;SDS011;20979;59.850;10.660;2023-04-15T05:03:04;2.53;;;2.33;;
8982;SDS011;20979;59.850;10.660;2023-04-15T05:05:32;2.50;;;2.30;;
8982;SDS011;20979;59.850;10.660;2023-04-15T05:07:59;2.73;;;2.53;;
8982;SDS011;20979;59.850;10.660;2023-04-15T05:10:28;2.50;;;2.30;;
8982;SDS011;20979;59.850;10.660;2023-04-15T05:12:56;2.60;;;2.40;;
8982;SDS011;20979;59.850;10.660;2023-04-15T05:15:23;3.30;;;2.47;;
8982;SDS011;20979;59.850;10.660;2023-04-15T05:17:50;2.53;;;2.43;;
8982;SDS011;20979;59.850;10.660;2023-04-15T05:20:18;2.87;;;2.67;;
8982;SDS011;20979;59.850;10.660;2023-04-15T05:22:45;2.60;;;2.20;;
8982;SDS011;20979;59.850;10.660;2023-04-15T05:25:12;3.10;;;2.67;;
8982;SDS011;20979;59.850;10.660;2023-04-15T05:27:41;2.60;;;2.40;;
8982;SDS011;20979;59.850;10.660;2023-04-15T05:30:09;2.80;;;2.57;;
8982;SDS011;20979;59.850;10.660;2023-04-15T05:32:37;3.10;;;2.80;;
8982;SDS011;20979;59.850;10.660;2023-04-15T05:35:05;3.60;;;2.60;;
8982;SDS011;20979;59.850;10.660;2023-04-15T05:37:32;3.27;;;2.70;;
8982;SDS011;20979;59.850;10.660;2023-04-15T05:40:00;2.63;;;2.43;;
8982;SDS011;20979;59.850;10.660;2023-04-15T05:42:28;2.97;;;2.70;;
8982;SDS011;20979;59.850;10.660;2023-04-15T05:44:57;3.10;;;2.77;;
8982;SDS011;20979;59.850;10.660;2023-04-15T05:47:24;3.33;;;2.60;;
8982;SDS011;20979;59.850;10.660;2023-04-15T05:49:52;2.93;;;2.50;;
8982;SDS011;20979;59.850;10.660;2023-04-15T05:52:19;2.87;;;2.67;;
8982;SDS011;20979;59.850;10.660;2023-04-15T05:54:47;4.63;;;3.00;;
8982;SDS011;20979;59.850;10.660;2023-04-15T05:57:14;3.10;;;2.80;;
8982;SDS011;20979;59.850;10.660;2023-04-15T05:59:42;3.20;;;2.90;;
8982;SDS011;20979;59.850;10.660;2023-04-15T06:02:10;3.47;;;3.17;;
8982;SDS011;20979;59.850;10.660;2023-04-15T06:04:38;3.10;;;2.80;;
8982;SDS011;20979;59.850;10.660;2023-04-15T06:07:05;3.90;;;3.40;;
8982;SDS011;20979;59.850;10.660;2023-04-15T06:09:33;3.47;;;2.90;;
8982;SDS011;20979;59.850;10.660;2023-04-15T06:12:00;4.57;;;3.03;;
8982;SDS011;20979;59.850;10.660;2023-04-15T06:14:27;3.20;;;2.90;;
8982;SDS011;20979;59.850;10.660;2023-04-15T06:16:55;3.47;;;2.93;;
8982;SDS011;20979;59.850;10.660;2023-04-15T06:19:24;3.10;;;2.90;;
8982;SDS011;20979;59.850;10.660;2023-04-15T06:21:51;3.33;;;3.10;;
8982;SDS011;20979;59.850;10.660;2023-04-15T06:24:18;3.47;;;3.17;;
8982;SDS011;20979;59.850;10.660;2023-04-15T06:26:46;3.20;;;2.90;;
8982;SDS011;20979;59.850;10.660;2023-04-15T06:29:13;3.23;;;3.00;;
8982;SDS011;20979;59.850;10.660;2023-04-15T06:31:41;3.97;;;3.67;;
8982;SDS011;20979;59.850;10.660;2023-04-15T06:34:08;3.60;;;3.23;;
8982;SDS011;20979;59.850;10.660;2023-04-15T06:36:37;4.70;;;3.20;;
8982;SDS011;20979;59.850;10.660;2023-04-15T06:39:04;3.30;;;3.00;;
8982;SDS011;20979;59.850;10.660;2023-04-15T06:41:31;3.40;;;3.10;;
8982;SDS011;20979;59.850;10.660;2023-04-15T06:43:59;3.37;;;3.10;;
8982;SDS011;20979;59.850;10.660;2023-04-15T06:46:27;3.40;;;3.10;;
8982;SDS011;20979;59.850;10.660;2023-04-15T06:48:54;5.13;;;3.63;;
8982;SDS011;20979;59.850;10.660;2023-04-15T06:51:21;3.40;;;3.10;;
8982;SDS011;20979;59.850;10.660;2023-04-15T06:53:50;3.40;;;3.10;;
8982;SDS011;20979;59.850;10.660;2023-04-15T06:56:18;3.77;;;3.47;;
8982;SDS011;20979;59.850;10.660;2023-04-15T06:58:46;4.47;;;3.90;;
8982;SDS011;20979;59.850;10.660;2023-04-15T07:01:13;4.00;;;3.60;;
8982;SDS011;20979;59.850;10.660;2023-04-15T07:03:40;4.93;;;4.53;;
8982;SDS011;20979;59.850;10.660;2023-04-15T07:06:08;3.37;;;3.10;;
8982;SDS011;20979;59.850;10.660;2023-04-15T07:08:35;4.13;;;3.70;;
8982;SDS011;20979;59.850;10.660;2023-04-15T07:11:04;3.70;;;3.40;;
8982;SDS011;20979;59.850;10.660;2023-04-15T07:13:32;5.30;;;4.23;;
8982;SDS011;20979;59.850;10.660;2023-04-15T07:16:00;4.40;;;4.00;;
8982;SDS011;20979;59.850;10.660;2023-04-15T07:18:27;4.73;;;3.70;;
8982;SDS011;20979;59.850;10.660;2023-04-15T07:20:55;4.10;;;3.43;;
8982;SDS011;20979;59.850;10.660;2023-04-15T07:23:22;5.17;;;3.73;;
8982;SDS011;20979;59.850;10.660;2023-04-15T07:25:49;4.10;;;3.77;;
8982;SDS011;20979;59.850;10.660;2023-04-15T07:28:18;3.70;;;3.40;;
8982;SDS011;20979;59.850;10.660;2023-04-15T07:30:46;4.70;;;3.60;;
8982;SDS011;20979;59.850;10.660;2023-04-15T07:33:13;3.90;;;3.43;;
8982;SDS011;20979;59.850;10.660;2023-04-15T07:35:41;3.70;;;3.40;;
8982;SDS011;20979;59.850;10.660;2023-04-15T07:38:09;3.90;;;3.40;;
8982;SDS011;20979;59.850;10.660;2023-04-15T07:40:37;4.23;;;3.40;;
8982;SDS011;20979;59.850;10.660;2023-04-15T07:43:05;3.57;;;3.20;;
8982;SDS011;20979;59.850;10.660;2023-04-15T07:45:34;3.60;;;3.30;;
8982;SDS011;20979;59.850;10.660;2023-04-15T07:48:01;3.20;;;3.00;;
8982;SDS011;20979;59.850;10.660;2023-04-15T07:50:29;3.67;;;3.37;;
8982;SDS011;20979;59.850;10.660;2023-04-15T07:52:56;3.37;;;3.07;;
8982;SDS011;20979;59.850;10.660;2023-04-15T07:55:23;4.10;;;3.70;;
8982;SDS011;20979;59.850;10.660;2023-04-15T07:57:51;4.13;;;3.20;;
8982;SDS011;20979;59.850;10.660;2023-04-15T08:00:18;3.83;;;3.30;;
8982;SDS011;20979;59.850;10.660;2023-04-15T08:02:47;3.90;;;3.60;;
8982;SDS011;20979;59.850;10.660;2023-04-15T08:05:16;3.93;;;3.53;;
8982;SDS011;20979;59.850;10.660;2023-04-15T08:07:44;4.03;;;3.50;;
8982;SDS011;20979;59.850;10.660;2023-04-15T08:10:11;3.90;;;3.60;;
8982;SDS011;20979;59.850;10.660;2023-04-15T08:12:38;4.00;;;3.20;;
8982;SDS011;20979;59.850;10.660;2023-04-15T08:15:07;3.30;;;3.00;;
8982;SDS011;20979;59.850;10.660;2023-04-15T08:17:34;3.40;;;3.03;;
8982;SDS011;20979;59.850;10.660;2023-04-15T08:20:04;3.20;;;2.90;;
8982;SDS011;20979;59.850;10.660;2023-04-15T08:22:31;2.90;;;2.70;;
8982;SDS011;20979;59.850;10.660;2023-04-15T08:24:58;3.37;;;3.03;;
8982;SDS011;20979;59.850;10.660;2023-04-15T08:27:26;4.17;;;3.40;;
8982;SDS011;20979;59.850;10.660;2023-04-15T08:29:53;4.03;;;3.30;;
8982;SDS011;20979;59.850;10.660;2023-04-15T08:32:21;3.67;;;3.37;;
8982;SDS011;20979;59.850;10.660;2023-04-15T08:34:50;3.43;;;3.10;;
8982;SDS011;20979;59.850;10.660;2023-04-15T08:37:19;3.70;;;3.40;;
8982;SDS011;20979;59.850;10.660;2023-04-15T08:39:47;3.23;;;3.00;;
8982;SDS011;20979;59.850;10.660;2023-04-15T08:42:15;3.10;;;2.80;;
8982;SDS011;20979;59.850;10.660;2023-04-15T08:44:43;6.07;;;4.97;;
8982;SDS011;20979;59.850;10.660;2023-04-15T08:47:12;4.63;;;3.93;;
8982;SDS011;20979;59.850;10.660;2023-04-15T08:49:40;4.67;;;3.70;;
8982;SDS011;20979;59.850;10.660;2023-04-15T08:52:08;3.53;;;2.90;;
8982;SDS011;20979;59.850;10.660;2023-04-15T08:54:37;3.37;;;3.07;;
8982;SDS011;20979;59.850;10.660;2023-04-15T08:57:06;4.47;;;3.83;;
8982;SDS011;20979;59.850;10.660;2023-04-15T08:59:33;4.30;;;3.83;;
8982;SDS011;20979;59.850;10.660;2023-04-15T09:02:01;4.20;;;3.73;;
8982;SDS011;20979;59.850;10.660;2023-04-15T09:04:28;4.10;;;3.47;;
8982;SDS011;20979;59.850;10.660;2023-04-15T09:06:56;4.73;;;3.90;;
8982;SDS011;20979;59.850;10.660;2023-04-15T09:09:23;5.50;;;3.83;;
8982;SDS011;20979;59.850;10.660;2023-04-15T09:11:52;4.87;;;4.03;;
8982;SDS011;20979;59.850;10.660;2023-04-15T09:14:20;3.70;;;3.40;;
8982;SDS011;20979;59.850;10.660;2023-04-15T09:16:57;5.73;;;3.80;;
8982;SDS011;20979;59.850;10.660;2023-04-15T09:19:25;3.70;;;3.40;;
8982;SDS011;20979;59.850;10.660;2023-04-15T09:21:53;3.10;;;2.90;;
8982;SDS011;20979;59.850;10.660;2023-04-15T09:24:21;3.00;;;2.80;;
8982;SDS011;20979;59.850;10.660;2023-04-15T09:26:51;3.47;;;3.27;;
8982;SDS011;20979;59.850;10.660;2023-04-15T09:29:24;3.70;;;3.07;;
8982;SDS011;20979;59.850;10.660;2023-04-15T09:31:52;3.37;;;3.07;;
8982;SDS011;20979;59.850;10.660;2023-04-15T09:34:19;3.53;;;3.23;;
8982;SDS011;20979;59.850;10.660;2023-04-15T09:36:53;3.83;;;3.40;;
8982;SDS011;20979;59.850;10.660;2023-04-15T09:39:21;3.43;;;3.13;;
8982;SDS011;20979;59.850;10.660;2023-04-15T09:42:03;3.30;;;3.00;;
8982;SDS011;20979;59.850;10.660;2023-04-15T09:44:32;2.80;;;2.60;;
8982;SDS011;20979;59.850;10.660;2023-04-15T09:47:00;2.90;;;2.60;;
8982;SDS011;20979;59.850;10.660;2023-04-15T09:49:27;2.80;;;2.60;;
8982;SDS011;20979;59.850;10.660;2023-04-15T09:51:58;2.80;;;2.60;;
8982;SDS011;20979;59.850;10.660;2023-04-15T09:54:31;3.00;;;2.80;;
8982;SDS011;20979;59.850;10.660;2023-04-15T09:57:03;2.70;;;2.50;;
8982;SDS011;20979;59.850;10.660;2023-04-15T09:59:32;2.80;;;2.60;;
8982;SDS011;20979;59.850;10.660;2023-04-15T10:02:00;2.80;;;2.60;;
8982;SDS011;20979;59.850;10.660;2023-04-15T10:04:29;2.70;;;2.50;;
8982;SDS011;20979;59.850;10.660;2023-04-15T10:06:56;2.60;;;2.40;;
8982;SDS011;20979;59.850;10.660;2023-04-15T10:09:24;3.17;;;2.67;;
8982;SDS011;20979;59.850;10.660;2023-04-15T10:11:52;3.80;;;2.43;;
8982;SDS011;20979;59.850;10.660;2023-04-15T10:14:20;3.17;;;2.50;;
8982;SDS011;20979;59.850;10.660;2023-04-15T10:16:49;3.13;;;2.70;;
8982;SDS011;20979;59.850;10.660;2023-04-15T10:19:17;3.00;;;2.70;;
8982;SDS011;20979;59.850;10.660;2023-04-15T10:21:45;3.10;;;2.90;;
8982;SDS011;20979;59.850;10.660;2023-04-15T10:24:13;2.97;;;2.70;;
8982;SDS011;20979;59.850;10.660;2023-04-15T10:26:41;2.87;;;2.67;;
8982;SDS011;20979;59.850;10.660;2023-04-15T10:29:11;3.30;;;3.00;;
8982;SDS011;20979;59.850;10.660;2023-04-15T10:31:38;2.80;;;2.60;;
8982;SDS011;20979;59.850;10.660;2023-04-15T10:34:08;2.80;;;2.60;;
8982;SDS011;20979;59.850;10.660;2023-04-15T10:36:35;3.40;;;3.10;;
8982;SDS011;20979;59.850;10.660;2023-04-15T10:39:05;3.20;;;2.90;;
8982;SDS011;20979;59.850;10.660;2023-04-15T10:42:06;3.30;;;3.00;;
8982;SDS011;20979;59.850;10.660;2023-04-15T10:44:34;3.07;;;2.87;;
8982;SDS011;20979;59.850;10.660;2023-04-15T10:47:05;2.93;;;2.73;;
8982;SDS011;20979;59.850;10.660;2023-04-15T10:49:34;3.33;;;3.03;;
8982;SDS011;20979;59.850;10.660;2023-04-15T10:52:09;3.17;;;2.97;;
8982;SDS011;20979;59.850;10.660;2023-04-15T10:54:36;4.50;;;3.20;;
8982;SDS011;20979;59.850;10.660;2023-04-15T10:57:08;3.03;;;2.83;;
8982;SDS011;20979;59.850;10.660;2023-04-15T11:02:23;3.57;;;3.13;;
8982;SDS011;20979;59.850;10.660;2023-04-15T11:05:04;3.60;;;3.30;;
8982;SDS011;20979;59.850;10.660;2023-04-15T11:07:32;3.53;;;3.27;;
8982;SDS011;20979;59.850;10.660;2023-04-15T11:09:59;3.33;;;3.00;;
8982;SDS011;20979;59.850;10.660;2023-04-15T11:12:34;3.30;;;3.00;;
8982;SDS011;20979;59.850;10.660;2023-04-15T11:17:43;3.33;;;3.03;;
8982;SDS011;20979;59.850;10.660;2023-04-15T11:20:13;3.23;;;2.93;;
8982;SDS011;20979;59.850;10.660;2023-04-15T11:22:46;3.27;;;2.97;;
8982;SDS011;20979;59.850;10.660;2023-04-15T11:25:21;3.33;;;3.03;;
8982;SDS011;20979;59.850;10.660;2023-04-15T11:27:49;3.57;;;3.00;;
8982;SDS011;20979;59.850;10.660;2023-04-15T11:30:19;5.07;;;3.17;;
8982;SDS011;20979;59.850;10.660;2023-04-15T11:32:46;3.57;;;3.30;;
8982;SDS011;20979;59.850;10.660;2023-04-15T11:35:15;3.70;;;3.40;;
8982;SDS011;20979;59.850;10.660;2023-04-15T11:37:42;4.80;;;4.00;;
8982;SDS011;20979;59.850;10.660;2023-04-15T11:40:10;3.60;;;3.30;;
8982;SDS011;20979;59.850;10.660;2023-04-15T11:42:39;5.10;;;3.67;;
8982;SDS011;20979;59.850;10.660;2023-04-15T11:45:08;4.33;;;3.90;;
8982;SDS011;20979;59.850;10.660;2023-04-15T11:47:36;4.90;;;3.73;;
8982;SDS011;20979;59.850;10.660;2023-04-15T11:50:13;4.20;;;3.80;;
8982;SDS011;20979;59.850;10.660;2023-04-15T11:52:41;4.50;;;4.03;;
8982;SDS011;20979;59.850;10.660;2023-04-15T11:55:08;4.67;;;3.67;;
8982;SDS011;20979;59.850;10.660;2023-04-15T11:57:35;4.13;;;3.73;;
8982;SDS011;20979;59.850;10.660;2023-04-15T12:00:03;4.40;;;3.33;;
8982;SDS011;20979;59.850;10.660;2023-04-15T12:02:35;4.00;;;3.60;;
8982;SDS011;20979;59.850;10.660;2023-04-15T12:05:03;4.50;;;3.77;;
8982;SDS011;20979;59.850;10.660;2023-04-15T12:07:30;3.97;;;3.57;;
8982;SDS011;20979;59.850;10.660;2023-04-15T12:09:58;4.00;;;3.60;;
8982;SDS011;20979;59.850;10.660;2023-04-15T12:12:27;3.70;;;3.40;;
8982;SDS011;20979;59.850;10.660;2023-04-15T12:14:55;3.80;;;3.50;;
8982;SDS011;20979;59.850;10.660;2023-04-15T12:17:23;3.73;;;3.43;;
8982;SDS011;20979;59.850;10.660;2023-04-15T12:19:56;3.53;;;3.27;;
8982;SDS011;20979;59.850;10.660;2023-04-15T12:22:23;4.03;;;3.57;;
8982;SDS011;20979;59.850;10.660;2023-04-15T12:24:53;5.83;;;3.73;;
8982;SDS011;20979;59.850;10.660;2023-04-15T12:27:24;4.17;;;3.77;;
8982;SDS011;20979;59.850;10.660;2023-04-15T12:29:56;4.60;;;3.90;;
8982;SDS011;20979;59.850;10.660;2023-04-15T12:32:29;4.63;;;3.50;;
8982;SDS011;20979;59.850;10.660;2023-04-15T12:35:02;5.43;;;3.70;;
8982;SDS011;20979;59.850;10.660;2023-04-15T12:37:30;4.50;;;3.63;;
8982;SDS011;20979;59.850;10.660;2023-04-15T12:39:57;4.33;;;3.90;;
8982;SDS011;20979;59.850;10.660;2023-04-15T12:42:25;4.10;;;3.60;;
8982;SDS011;20979;59.850;10.660;2023-04-15T12:44:52;5.07;;;4.10;;
8982;SDS011;20979;59.850;10.660;2023-04-15T12:47:20;5.50;;;3.90;;
8982;SDS011;20979;59.850;10.660;2023-04-15T12:49:48;4.13;;;3.47;;
8982;SDS011;20979;59.850;10.660;2023-04-15T12:52:17;4.60;;;3.33;;
8982;SDS011;20979;59.850;10.660;2023-04-15T12:54:44;4.00;;;3.50;;
8982;SDS011;20979;59.850;10.660;2023-04-15T12:57:11;4.20;;;3.77;;
8982;SDS011;20979;59.850;10.660;2023-04-15T12:59:39;5.07;;;3.80;;
8982;SDS011;20979;59.850;10.660;2023-04-15T13:02:06;4.23;;;3.50;;
8982;SDS011;20979;59.850;10.660;2023-04-15T13:04:33;3.97;;;3.60;;
8982;SDS011;20979;59.850;10.660;2023-04-15T13:07:01;4.10;;;3.70;;
8982;SDS011;20979;59.850;10.660;2023-04-15T13:09:30;4.47;;;3.70;;
8982;SDS011;20979;59.850;10.660;2023-04-15T13:11:57;4.00;;;3.50;;
8982;SDS011;20979;59.850;10.660;2023-04-15T13:14:25;4.40;;;3.40;;
8982;SDS011;20979;59.850;10.660;2023-04-15T13:16:52;6.47;;;3.57;;
8982;SDS011;20979;59.850;10.660;2023-04-15T13:19:20;3.90;;;3.23;;
8982;SDS011;20979;59.850;10.660;2023-04-15T13:21:47;3.83;;;3.43;;
8982;SDS011;20979;59.850;10.660;2023-04-15T13:24:15;5.13;;;4.03;;
8982;SDS011;20979;59.850;10.660;2023-04-15T13:26:43;3.50;;;3.20;;
8982;SDS011;20979;59.850;10.660;2023-04-15T13:29:11;4.20;;;3.60;;
8982;SDS011;20979;59.850;10.660;2023-04-15T13:31:39;3.97;;;3.50;;
8982;SDS011;20979;59.850;10.660;2023-04-15T13:34:06;5.53;;;3.80;;
8982;SDS011;20979;59.850;10.660;2023-04-15T13:36:34;6.53;;;3.70;;
8982;SDS011;20979;59.850;10.660;2023-04-15T13:39:01;4.20;;;3.80;;
8982;SDS011;20979;59.850;10.660;2023-04-15T13:41:29;4.67;;;3.50;;
8982;SDS011;20979;59.850;10.660;2023-04-15T13:43:58;3.90;;;3.27;;
8982;SDS011;20979;59.850;10.660;2023-04-15T13:46:26;4.67;;;3.63;;
8982;SDS011;20979;59.850;10.660;2023-04-15T13:48:53;4.73;;;3.50;;
8982;SDS011;20979;59.850;10.660;2023-04-15T13:51:21;3.93;;;3.47;;
8982;SDS011;20979;59.850;10.660;2023-04-15T13:53:49;3.67;;;3.00;;
8982;SDS011;20979;59.850;10.660;2023-04-15T13:56:16;3.37;;;2.90;;
8982;SDS011;20979;59.850;10.660;2023-04-15T13:58:44;3.17;;;2.87;;
8982;SDS011;20979;59.850;10.660;2023-04-15T14:01:13;4.40;;;3.20;;
8982;SDS011;20979;59.850;10.660;2023-04-15T14:03:40;3.97;;;3.20;;
8982;SDS011;20979;59.850;10.660;2023-04-15T14:06:09;3.27;;;2.97;;
8982;SDS011;20979;59.850;10.660;2023-04-15T14:08:36;3.93;;;3.53;;
8982;SDS011;20979;59.850;10.660;2023-04-15T14:11:05;3.47;;;3.27;;
8982;SDS011;20979;59.850;10.660;2023-04-15T14:13:32;3.37;;;3.07;;
8982;SDS011;20979;59.850;10.660;2023-04-15T14:15:59;4.20;;;2.87;;
8982;SDS011;20979;59.850;10.660;2023-04-15T14:18:29;4.43;;;3.40;;
8982;SDS011;20979;59.850;10.660;2023-04-15T14:20:56;10.70;;;4.83;;
8982;SDS011;20979;59.850;10.660;2023-04-15T14:23:25;5.27;;;4.43;;
8982;SDS011;20979;59.850;10.660;2023-04-15T14:25:52;8.63;;;3.97;;
8982;SDS011;20979;59.850;10.660;2023-04-15T14:28:20;3.73;;;2.77;;
8982;SDS011;20979;59.850;10.660;2023-04-15T14:30:47;4.80;;;2.90;;
8982;SDS011;20979;59.850;10.660;2023-04-15T14:33:15;3.57;;;2.93;;
8982;SDS011;20979;59.850;10.660;2023-04-15T14:35:44;3.30;;;3.00;;
8982;SDS011;20979;59.850;10.660;2023-04-15T14:38:11;3.63;;;2.83;;
8982;SDS011;20979;59.850;10.660;2023-04-15T14:40:39;6.23;;;3.43;;
8982;SDS011;20979;59.850;10.660;2023-04-15T14:43:07;3.67;;;3.37;;
8982;SDS011;20979;59.850;10.660;2023-04-15T14:45:36;5.67;;;3.10;;
8982;SDS011;20979;59.850;10.660;2023-04-15T14:48:04;4.50;;;3.13;;
8982;SDS011;20979;59.850;10.660;2023-04-15T14:50:34;3.10;;;2.90;;
8982;SDS011;20979;59.850;10.660;2023-04-15T14:53:02;4.83;;;3.03;;
8982;SDS011;20979;59.850;10.660;2023-04-15T14:55:30;3.40;;;3.10;;
8982;SDS011;20979;59.850;10.660;2023-04-15T14:57:57;3.10;;;2.80;;
8982;SDS011;20979;59.850;10.660;2023-04-15T15:00:26;4.27;;;3.00;;